ADDS METAR Data INFO
IDs: Format: Raw Decoded Include TAF

Data at: 1507 UTC 11 Dec 2017

KW13 111455Z AUTO 22008KT 10SM CLR 04/M05 A3007 RMK AO1 T00411049
KW13 111435Z AUTO 23006KT 10SM CLR 04/M05 A3007 RMK AO1 T00351047
KW13 111415Z AUTO 21003KT 10SM CLR 02/M05 A3006 RMK AO1 T00201051
KW13 111355Z AUTO 00000KT 10SM CLR 02/M05 A3005 RMK AO1 T00211055
KW13 111335Z AUTO 23004KT 10SM CLR 00/M06 A3004 RMK AO1 T00011056
KW13 111315Z AUTO 00000KT 10SM CLR 00/M06 A3004 RMK AO1 T10021058
KW13 111255Z AUTO 00000KT 10SM CLR M02/M06 A3004 RMK AO1 T10211065
KW13 111235Z AUTO 24004KT 10SM CLR 00/M07 A3003 RMK AO1 T10011066
KW13 111215Z AUTO 25006KT 10SM CLR 00/M07 A3002 RMK AO1 T00011066
KW13 111155Z AUTO 24005KT 10SM CLR 00/M07 A3001 RMK AO1 T10051067 10009 21027
KW13 111135Z AUTO 22003KT 10SM CLR M03/M07 A3001 RMK AO1 T10261070
KW13 111115Z AUTO 00000KT 10SM CLR M02/M07 A3000 RMK AO1 T10161070
KW13 111055Z AUTO 22003KT 10SM CLR 00/M07 A3000 RMK AO1 T10021071
KW13 111035Z AUTO 25004KT 10SM CLR 00/M07 A3000 RMK AO1 T00001071
KW13 111015Z AUTO 24006KT 10SM CLR 00/M07 A2999 RMK AO1 T00011071
KW13 110955Z AUTO 24005KT 10SM CLR 01/M07 A2999 RMK AO1 T00081071
KW13 110935Z AUTO 24007KT 10SM CLR 01/M07 A2999 RMK AO1 T00071070
KW13 110915Z AUTO 25007KT 10SM CLR 01/M07 A2998 RMK AO1 T00081072
KW13 110855Z AUTO 24007KT 10SM CLR 01/M07 A2998 RMK AO1 T00061075
KW13 110835Z AUTO 23006KT 10SM CLR 01/M08 A2998 RMK AO1 T00061077
KW13 110815Z AUTO 23004KT 10SM CLR 00/M08 A2999 RMK AO1 T00011078
KW13 110755Z AUTO 22003KT 10SM CLR 00/M08 A2998 RMK AO1 T10021082
KW13 110735Z AUTO 20003KT 10SM CLR 00/M08 A2998 RMK AO1 T10031085
KW13 110715Z AUTO 00000KT 10SM CLR 00/M08 A2998 RMK AO1 T00001085
KW13 110655Z AUTO 00000KT 10SM CLR 00/M08 A2998 RMK AO1 T00001085
KW13 110635Z AUTO 22003KT 10SM CLR 00/M08 A2998 RMK AO1 T00011085
KW13 110615Z AUTO 23004KT 10SM CLR 00/M08 A2998 RMK AO1 T00041085
KW13 110555Z AUTO 23005KT 10SM CLR 00/M08 A2998 RMK AO1 T00011081 10010 21014
KW13 110535Z AUTO 24003KT 10SM CLR 01/M08 A2999 RMK AO1 T00061080
KW13 110515Z AUTO 26003KT 10SM CLR 01/M07 A3000 RMK AO1 T00051075
KW13 110455Z AUTO 26004KT 10SM CLR 01/M07 A3000 RMK AO1 T00051072 400221038
KW13 110435Z AUTO 25003KT 10SM CLR 01/M07 A3001 RMK AO1 T00051072
KW13 110415Z AUTO 00000KT 10SM CLR 01/M07 A3001 RMK AO1 T00081070
KW13 110355Z AUTO 24003KT 10SM CLR 01/M07 A3001 RMK AO1 T00101070
KW13 110335Z AUTO 24003KT 10SM BKN085 01/M07 A3001 RMK AO1 T00081067
KW13 110315Z AUTO 24004KT 10SM OVC085 01/M07 A3001 RMK AO1 T00101068
KW13 110255Z AUTO 00000KT 10SM OVC085 01/M07 A3001 RMK AO1 T00081068
KW13 110235Z AUTO 22004KT 10SM OVC085 01/M07 A3001 RMK AO1 T00101070
KW13 110215Z AUTO 23005KT 10SM OVC085 01/M07 A3001 RMK AO1 T00081075
KW13 110155Z AUTO 23005KT 10SM OVC085 01/M08 A3001 RMK AO1 T00061077
KW13 110135Z AUTO 24005KT 10SM OVC085 01/M08 A3002 RMK AO1 T00061082
KW13 110115Z AUTO 23004KT 10SM OVC085 00/M08 A3002 RMK AO1 T00031079
KW13 110055Z AUTO 00000KT 10SM OVC085 M01/M07 A3002 RMK AO1 T10061075
KW13 110035Z AUTO 00000KT 10SM BKN085 M01/M08 A3002 RMK AO1 T10101079
KW13 110015Z AUTO 00000KT 10SM SCT085 M01/M08 A3002 RMK AO1 T10131079
KW13 102355Z AUTO 00000KT 10SM SCT090 M01/M08 A3002 RMK AO1 T10081080 10022 21008
KW13 102335Z AUTO 00000KT 10SM BKN090 00/M08 A3001 RMK AO1 T10041080
KW13 102315Z AUTO 19003KT 10SM CLR 00/M08 A3001 RMK AO1 T10041079
KW13 102255Z AUTO 00000KT 10SM CLR 00/M08 A3001 RMK AO1 T00001080
KW13 102235Z AUTO 00000KT 10SM CLR 00/M08 A3001 RMK AO1 T00001080
KW13 102215Z AUTO 23005KT 10SM CLR 01/M08 A3001 RMK AO1 T00051081
KW13 102155Z AUTO 22007KT 10SM CLR 01/M08 A3001 RMK AO1 T00071078
KW13 102135Z AUTO 21010KT 10SM CLR 01/M08 A3001 RMK AO1 T00121076
KW13 102115Z AUTO 23006KT 10SM CLR 02/M08 A3001 RMK AO1 T00151076
KW13 102055Z AUTO 20008KT 10SM CLR 02/M07 A3001 RMK AO1 T00171072
KW13 102035Z AUTO 22007KT 200V270 10SM CLR 02/M07 A3000 RMK AO1 T00171071
KW13 102015Z AUTO 23006G15KT 10SM CLR 02/M07 A3001 RMK AO1 T00171072
KW13 101955Z AUTO 22008KT 10SM CLR 02/M07 A3001 RMK AO1 T00201070
KW13 101935Z AUTO 24008KT 10SM CLR 02/M07 A3002 RMK AO1 T00211071
KW13 101915Z AUTO 24008KT 10SM CLR 02/M07 A3002 RMK AO1 T00171072
KW13 101855Z AUTO 25008G14KT 10SM CLR 02/M07 A3002 RMK AO1 T00171071
KW13 101835Z AUTO 25010G17KT 10SM SCT038 01/M07 A3002 RMK AO1 T00131074
KW13 101815Z AUTO 24007G16KT 10SM SCT038 01/M07 A3003 RMK AO1 T00131072
KW13 101755Z AUTO 22006G14KT 10SM SCT038 01/M07 A3004 RMK AO1 T00091067 10010 21030
KW13 101735Z AUTO 23009G15KT 10SM SCT036 01/M07 A3005 RMK AO1 T00081071
KW13 101715Z AUTO 27007G19KT 240V300 10SM SCT038 01/M08 A3005 RMK AO1 T00051080
KW13 101655Z AUTO 24006KT 10SM SCT036 01/M07 A3006 RMK AO1 T00061073
KW13 101635Z AUTO 25005KT 10SM SCT036 00/M07 A3007 RMK AO1 T00021069
KW13 101615Z AUTO 25006KT 10SM BKN038 00/M06 A3007 RMK AO1 T00011065
KW13 101555Z AUTO 25007KT 210V270 10SM OVC040 00/M06 A3007 RMK AO1 T00001063
KW13 101535Z AUTO 27005KT 10SM OVC040 00/M07 A3007 RMK AO1 T00001068
KW13 101515Z AUTO 25007KT 10SM OVC040 00/M07 A3006 RMK AO1 T00001069
KW13 101455Z AUTO 24007KT 10SM BKN040 00/M07 A3006 RMK AO1 T10021066
KW13 101435Z AUTO 22007KT 10SM SCT042 M01/M07 A3005 RMK AO1 T10061072
KW13 101415Z AUTO 27003KT 10SM CLR M01/M07 A3003 RMK AO1 T10091072
KW13 101355Z AUTO 26003KT 10SM SCT042 M01/M08 A3003 RMK AO1 T10141076
KW13 101335Z AUTO 26005KT 10SM BKN042 M01/M07 A3002 RMK AO1 T10111074
KW13 101315Z AUTO 24004KT 10SM SCT042 M03/M07 A3001 RMK AO1 T10261069
KW13 101255Z AUTO 25003KT 10SM BKN042 M03/M07 A3000 RMK AO1 T10291071
KW13 101235Z AUTO 28003KT 10SM BKN042 M02/M08 A3000 RMK AO1 T10201079
KW13 101215Z AUTO 29004KT 10SM OVC042 M02/M07 A2999 RMK AO1 T10201075
KW13 101155Z AUTO 00000KT 10SM OVC042 M02/M08 A2998 RMK AO1 70012 T10161078 11010 21038
KW13 101135Z AUTO 28006KT 10SM OVC044 M02/M07 A2997 RMK AO1 T10191073
KW13 101115Z AUTO 00000KT 10SM OVC044 M02/M07 A2996 RMK AO1 T10221073
KW13 101055Z AUTO 27003KT 10SM OVC040 M02/M08 A2995 RMK AO1 T10211077
KW13 101035Z AUTO 28005KT 10SM SCT037 OVC047 M02/M07 A2994 RMK AO1 T10251073
KW13 101015Z AUTO 27003KT 10SM OVC047 M02/M07 A2994 RMK AO1 T10211071
KW13 100955Z AUTO 27004KT 10SM SCT044 OVC050 M02/M07 A2993 RMK AO1 T10251068
KW13 100935Z AUTO 00000KT 10SM OVC050 M02/M07 A2993 RMK AO1 T10211070
KW13 100915Z AUTO 25004KT 10SM SCT043 OVC050 M02/M07 A2991 RMK AO1 T10211070
KW13 100855Z AUTO 25006KT 10SM SCT044 OVC050 M02/M08 A2990 RMK AO1 T10251076
KW13 100835Z AUTO 24004KT 10SM OVC050 M03/M08 A2990 RMK AO1 T10311079
KW13 100815Z AUTO 28004KT 10SM SCT046 SCT055 M03/M08 A2989 RMK AO1 T10291083
KW13 100755Z AUTO 26005KT 10SM CLR M03/M07 A2988 RMK AO1 T10331072
KW13 100735Z AUTO 31003KT 10SM SCT048 M03/M07 A2988 RMK AO1 T10331071
KW13 100715Z AUTO 32003KT 10SM CLR M01/M08 A2987 RMK AO1 T10151076
KW13 100655Z AUTO 27005KT 10SM SCT044 BKN050 M01/M07 A2986 RMK AO1 T10141066
KW13 100635Z AUTO 27003KT 10SM SCT043 OVC050 M01/M06 A2986 RMK AO1 T10111060
KW13 100615Z AUTO 27003KT 10SM OVC050 M01/M06 A2985 RMK AO1 T10101064
KW13 100555Z AUTO 26003KT 10SM OVC050 M01/M06 A2984 RMK AO1 T10101060 11008 21030
KW13 100535Z AUTO 27004KT 10SM OVC050 M01/M06 A2984 RMK AO1 T10081060
KW13 100515Z AUTO 00000KT 10SM OVC050 M01/M06 A2984 RMK AO1 T10101057
KW13 100455Z AUTO 00000KT 10SM BKN050 OVC070 M01/M05 A2983 RMK AO1 T10101051 400031030
KW13 100435Z AUTO 00000KT 10SM SCT050 SCT060 OVC080 M01/M04 A2983 RMK AO1 T10101040
KW13 100415Z AUTO 24003KT 10SM OVC080 M01/M03 A2982 RMK AO1 T10111030
KW13 100355Z AUTO 24005KT 10SM BKN080 OVC090 M01/M02 A2981 RMK AO1 T10111025
KW13 100335Z AUTO 24004KT 10SM OVC080 M01/M02 A2981 RMK AO1 T10101021
KW13 100315Z AUTO 24005KT 10SM SCT060 OVC080 M01/M02 A2980 RMK AO1 T10111020